createdAt,value
2023-02-22T00:02:13.085Z,100440.87
2023-02-22T00:05:20.044Z,100440.22
2023-02-22T00:08:23.898Z,100438.78
2023-02-22T00:11:26.675Z,100434.47
2023-02-22T00:14:29.120Z,100431.22
2023-02-22T00:17:31.785Z,100431.25
2023-02-22T00:20:34.908Z,100432.31
2023-02-22T00:23:39.867Z,100437.59
2023-02-22T00:26:42.446Z,100451.47
2023-02-22T00:29:46.354Z,100438.41
2023-02-22T00:32:49.660Z,100441.84
2023-02-22T00:35:52.351Z,100439.00
2023-02-22T00:38:55.675Z,100436.28
2023-02-22T00:41:58.429Z,100451.31
2023-02-22T00:45:00.796Z,100450.81
2023-02-22T00:48:04.628Z,100453.84
2023-02-22T00:51:07.062Z,100459.88
2023-02-22T00:54:10.650Z,100459.25
2023-02-22T00:57:13.205Z,100461.09
2023-02-22T01:00:18.863Z,100457.00
2023-02-22T01:03:22.173Z,100450.37
2023-02-22T01:06:25.186Z,100450.50
2023-02-22T01:09:27.888Z,100445.41
2023-02-22T01:12:30.483Z,100453.72
2023-02-22T01:15:32.870Z,100448.06
2023-02-22T01:18:36.205Z,100440.59
2023-02-22T01:21:39.938Z,100443.13
2023-02-22T01:24:42.746Z,100445.59
2023-02-22T01:27:45.115Z,100443.66
2023-02-22T01:30:48.387Z,100442.84
2023-02-22T01:33:51.409Z,100449.59
2023-02-22T01:36:54.076Z,100443.50
2023-02-22T01:39:56.434Z,100440.19
2023-02-22T01:43:01.217Z,100435.12
2023-02-22T01:46:03.607Z,100441.81
2023-02-22T01:49:07.310Z,100429.75
2023-02-22T01:52:12.008Z,100432.22
2023-02-22T01:55:17.126Z,100433.97
2023-02-22T01:58:21.839Z,100428.88
2023-02-22T02:01:25.631Z,100429.66
2023-02-22T02:04:28.369Z,100440.91
2023-02-22T02:07:30.724Z,100422.91
2023-02-22T02:10:34.996Z,100423.69
2023-02-22T02:13:38.547Z,100420.25
2023-02-22T02:16:51.919Z,100427.81
2023-02-22T02:20:07.267Z,100419.72
2023-02-22T02:23:11.153Z,100426.47
2023-02-22T02:26:19.621Z,100423.06
2023-02-22T02:29:25.518Z,100418.00
2023-02-22T02:32:33.211Z,100418.97
2023-02-22T02:35:43.676Z,100422.44
2023-02-22T02:38:50.941Z,100423.72
2023-02-22T02:41:54.582Z,100426.66
2023-02-22T02:45:12.733Z,100425.69
2023-02-22T02:48:17.722Z,100430.81
2023-02-22T02:51:21.810Z,100429.94
2023-02-22T02:54:25.881Z,100419.53
2023-02-22T02:57:28.276Z,100433.25
2023-02-22T03:00:39.213Z,100426.03
2023-02-22T03:03:47.790Z,100430.66
2023-02-22T03:06:56.341Z,100425.62
2023-02-22T03:10:18.866Z,100438.41
2023-02-22T03:13:45.154Z,100428.16
2023-02-22T03:17:20.254Z,100430.16
2023-02-22T03:20:31.519Z,100429.19
2023-02-22T03:23:34.426Z,100421.16
2023-02-22T03:26:59.613Z,100426.22
2023-02-22T03:30:03.747Z,100417.44
2023-02-22T03:33:40.642Z,100424.19
2023-02-22T03:36:45.416Z,100426.78
2023-02-22T03:39:51.040Z,100431.44
2023-02-22T03:42:59.220Z,100433.75
2023-02-22T03:46:06.220Z,100429.38
2023-02-22T03:49:20.388Z,100437.03
2023-02-22T03:52:23.593Z,100426.63
2023-02-22T03:55:28.838Z,100443.87
2023-02-22T03:58:32.029Z,100441.16
2023-02-22T04:01:34.594Z,100446.22
2023-02-22T04:04:37.299Z,100449.81
2023-02-22T04:07:40.101Z,100455.06
2023-02-22T04:10:43.236Z,100457.75
2023-02-22T04:13:45.664Z,100457.00
2023-02-22T04:16:48.408Z,100455.22
2023-02-22T04:19:51.450Z,100457.75
2023-02-22T04:22:55.400Z,100459.59
2023-02-22T04:25:57.804Z,100452.09
2023-02-22T04:29:00.723Z,100460.25
2023-02-22T04:32:04.000Z,100456.09
2023-02-22T04:35:07.577Z,100459.97
2023-02-22T04:38:10.414Z,100456.66
2023-02-22T04:41:13.953Z,100456.66
2023-02-22T04:44:17.292Z,100450.59
2023-02-22T04:47:20.403Z,100450.00
2023-02-22T04:50:23.402Z,100452.72
2023-02-22T04:53:26.346Z,100457.75
2023-02-22T04:56:28.918Z,100455.22
2023-02-22T04:59:33.001Z,100458.00
2023-02-22T05:02:36.012Z,100456.38
2023-02-22T05:05:38.740Z,100458.09
2023-02-22T05:08:41.194Z,100464.25
2023-02-22T05:11:43.884Z,100463.87
2023-02-22T05:14:46.223Z,100454.44
2023-02-22T05:17:49.053Z,100460.44
2023-02-22T05:20:52.580Z,100473.53
2023-02-22T05:23:55.281Z,100471.84
2023-02-22T05:26:57.790Z,100469.44
2023-02-22T05:30:00.410Z,100481.75
2023-02-22T05:33:02.934Z,100474.09
2023-02-22T05:36:07.764Z,100482.09
2023-02-22T05:39:10.252Z,100484.69
2023-02-22T05:42:12.913Z,100481.09
2023-02-22T05:45:16.410Z,100488.63
2023-02-22T05:48:20.221Z,100490.34
2023-02-22T05:51:24.238Z,100494.72
2023-02-22T05:54:27.034Z,100504.31
2023-02-22T05:57:29.371Z,100512.72
2023-02-22T06:00:33.234Z,100520.47
2023-02-22T06:03:35.963Z,100529.03
2023-02-22T06:06:38.363Z,100528.78
2023-02-22T06:09:41.354Z,100534.56
2023-02-22T06:12:44.428Z,100532.63
2023-02-22T06:15:47.434Z,100531.69
2023-02-22T06:18:50.338Z,100535.81
2023-02-22T06:21:59.961Z,100534.97
2023-02-22T06:25:03.490Z,100540.81
2023-02-22T06:28:06.210Z,100541.50
2023-02-22T06:31:08.645Z,100550.56
2023-02-22T06:34:11.556Z,100541.38
2023-02-22T06:37:14.053Z,100558.06
2023-02-22T06:40:16.991Z,100554.03
2023-02-22T06:43:19.465Z,100557.25
2023-02-22T06:46:22.118Z,100545.59
2023-02-22T06:49:24.511Z,100555.69
2023-02-22T06:52:27.146Z,100557.31
2023-02-22T06:55:30.683Z,100554.91
2023-02-22T06:58:33.345Z,100560.78
2023-02-22T07:01:36.495Z,100555.53
2023-02-22T07:04:41.624Z,100566.88
2023-02-22T07:07:45.420Z,100563.00
2023-02-22T07:10:50.472Z,100560.25
2023-02-22T07:13:52.821Z,100567.41
2023-02-22T07:16:55.446Z,100566.88
2023-02-22T07:19:57.871Z,100559.37
2023-02-22T07:23:01.304Z,100567.59
2023-02-22T07:26:05.309Z,100566.00
2023-02-22T07:29:08.173Z,100559.50
2023-02-22T07:32:10.984Z,100560.13
2023-02-22T07:35:18.398Z,100564.12
2023-02-22T07:38:21.237Z,100563.34
2023-02-22T07:41:23.945Z,100552.19
2023-02-22T07:44:26.813Z,100559.78
2023-02-22T07:47:32.075Z,100563.09
2023-02-22T07:50:35.162Z,100569.28
2023-02-22T07:53:37.784Z,100558.94
2023-02-22T07:56:47.210Z,100552.75
2023-02-22T07:59:50.200Z,100559.53
2023-02-22T08:02:52.962Z,100565.28
2023-02-22T08:05:56.682Z,100562.63
2023-02-22T08:08:59.353Z,100561.22
2023-02-22T08:12:02.081Z,100562.59
2023-02-22T08:15:04.949Z,100559.13
2023-02-22T08:18:09.157Z,100564.22
2023-02-22T08:21:11.502Z,100564.09
2023-02-22T08:24:14.169Z,100563.44
2023-02-22T08:27:16.429Z,100560.84
2023-02-22T08:30:23.317Z,100566.22
2023-02-22T08:33:26.107Z,100567.91
2023-02-22T08:36:29.588Z,100566.75
2023-02-22T08:39:31.976Z,100565.31
2023-02-22T08:42:34.594Z,100576.59
2023-02-22T08:45:36.965Z,100566.06
2023-02-22T08:48:39.648Z,100562.37
2023-02-22T08:51:42.061Z,100566.16
2023-02-22T08:54:45.649Z,100566.91
2023-02-22T08:57:48.168Z,100572.28
2023-02-22T09:00:50.897Z,100564.22
2023-02-22T09:03:53.418Z,100575.97
2023-02-22T09:06:56.145Z,100572.37
2023-02-22T09:09:58.444Z,100574.69
2023-02-22T09:13:01.546Z,100574.50
2023-02-22T09:16:04.256Z,100578.75
2023-02-22T09:19:10.203Z,100576.00
2023-02-22T09:22:12.544Z,100578.66
2023-02-22T09:25:17.390Z,100567.84
2023-02-22T09:28:19.907Z,100568.84
2023-02-22T09:31:24.290Z,100571.88
2023-02-22T09:34:29.591Z,100559.56
2023-02-22T09:37:32.661Z,100566.78
2023-02-22T09:40:41.152Z,100565.09
2023-02-22T09:43:52.062Z,100561.22
2023-02-22T09:46:56.322Z,100560.34
2023-02-22T09:49:59.086Z,100555.97
2023-02-22T09:53:04.355Z,100558.94
2023-02-22T09:56:11.840Z,100562.69
2023-02-22T09:59:18.821Z,100558.91
2023-02-22T10:02:30.057Z,100557.91
2023-02-22T10:05:54.316Z,100551.09
2023-02-22T10:08:59.420Z,100550.91
2023-02-22T10:12:09.126Z,100557.75
2023-02-22T10:15:30.540Z,100555.00
2023-02-22T10:18:39.167Z,100546.66
2023-02-22T10:21:53.663Z,100556.16
2023-02-22T10:25:05.251Z,100545.19
2023-02-22T10:28:16.928Z,100536.09
2023-02-22T10:31:23.288Z,100537.91
2023-02-22T10:34:28.207Z,100534.97
2023-02-22T10:37:34.502Z,100535.25
2023-02-22T10:40:37.006Z,100530.88
2023-02-22T10:43:43.778Z,100530.97
2023-02-22T10:46:47.394Z,100529.38
2023-02-22T10:49:51.986Z,100526.53
2023-02-22T10:52:55.206Z,100523.38
2023-02-22T10:56:07.591Z,100524.44
2023-02-22T10:59:10.093Z,100523.25
2023-02-22T11:02:16.064Z,100523.00
2023-02-22T11:05:29.779Z,100514.19
2023-02-22T11:08:33.255Z,100502.81
2023-02-22T11:11:36.273Z,100510.50
2023-02-22T11:14:39.183Z,100511.53
2023-02-22T11:17:41.595Z,100503.97
2023-02-22T11:20:44.232Z,100506.50
2023-02-22T11:23:46.738Z,100505.41
2023-02-22T11:26:50.700Z,100499.50
2023-02-22T11:29:53.177Z,100501.44
2023-02-22T11:32:56.026Z,100502.19
2023-02-22T11:36:04.838Z,100495.09
2023-02-22T11:39:28.360Z,100495.09
2023-02-22T11:42:30.741Z,100492.16
2023-02-22T11:45:33.399Z,100495.25
2023-02-22T11:48:39.141Z,100492.00
2023-02-22T11:51:56.540Z,100493.63
2023-02-22T11:55:06.312Z,100492.94
2023-02-22T11:58:08.945Z,100491.72
2023-02-22T12:01:20.986Z,100492.53
2023-02-22T12:04:23.864Z,100496.50
2023-02-22T12:07:32.832Z,100490.31
2023-02-22T12:10:50.033Z,100496.00
2023-02-22T12:14:11.503Z,100485.97
2023-02-22T12:17:23.526Z,100485.03
2023-02-22T12:20:30.947Z,100488.84
2023-02-22T12:23:41.149Z,100480.28
2023-02-22T12:26:50.669Z,100476.06
2023-02-22T12:30:19.849Z,100473.00
2023-02-22T12:33:25.297Z,100475.97
2023-02-22T12:36:48.202Z,100471.72
2023-02-22T12:40:13.882Z,100465.81
2023-02-22T12:43:36.867Z,100461.13
2023-02-22T12:46:42.206Z,100454.09
2023-02-22T12:49:51.425Z,100456.03
2023-02-22T12:53:02.838Z,100466.03
2023-02-22T12:56:16.022Z,100455.28
2023-02-22T12:59:38.142Z,100452.88
2023-02-22T13:03:01.595Z,100451.19
2023-02-22T13:06:22.947Z,100440.84
2023-02-22T13:09:28.445Z,100440.94
2023-02-22T13:12:46.257Z,100439.16
2023-02-22T13:16:08.207Z,100442.41
2023-02-22T13:19:29.491Z,100434.38
2023-02-22T13:22:32.565Z,100441.72
2023-02-22T13:25:40.713Z,100440.72
2023-02-22T13:28:46.555Z,100439.75
2023-02-22T13:32:09.294Z,100446.28
2023-02-22T13:35:21.470Z,100440.56
2023-02-22T13:38:39.317Z,100437.72
2023-02-22T13:41:55.248Z,100440.31
2023-02-22T13:45:03.249Z,100436.13
2023-02-22T13:48:28.270Z,100440.28
2023-02-22T13:51:50.684Z,100438.16
2023-02-22T13:54:55.830Z,100435.41
2023-02-22T13:58:16.118Z,100436.97
2023-02-22T14:01:38.888Z,100436.16
2023-02-22T14:04:42.034Z,100440.34
2023-02-22T14:07:48.345Z,100434.53
2023-02-22T14:10:57.886Z,100439.44
2023-02-22T14:14:03.548Z,100431.53
2023-02-22T14:17:16.879Z,100432.66
2023-02-22T14:20:21.480Z,100435.34
2023-02-22T14:23:29.961Z,100437.25
2023-02-22T14:26:34.178Z,100435.28
2023-02-22T14:29:37.030Z,100435.84
2023-02-22T14:32:39.608Z,100431.25
2023-02-22T14:35:49.888Z,100433.13
2023-02-22T14:38:54.501Z,100437.22
2023-02-22T14:42:01.511Z,100434.94
2023-02-22T14:45:10.096Z,100438.62
2023-02-22T14:48:14.321Z,100432.72
2023-02-22T14:51:21.954Z,100429.66
2023-02-22T14:54:31.920Z,100425.78
2023-02-22T14:57:38.979Z,100427.81
2023-02-22T15:00:43.505Z,100423.94
2023-02-22T15:03:49.740Z,100425.28
2023-02-22T15:06:57.386Z,100435.44
2023-02-22T15:10:07.181Z,100425.44
2023-02-22T15:13:15.348Z,100433.16
2023-02-22T15:16:18.061Z,100431.31
2023-02-22T15:19:25.338Z,100417.81
2023-02-22T15:22:33.037Z,100420.69
2023-02-22T15:25:37.647Z,100417.44
2023-02-22T15:28:41.411Z,100420.13
2023-02-22T15:31:47.108Z,100421.69
2023-02-22T15:34:50.442Z,100419.38
2023-02-22T15:38:06.725Z,100426.63
2023-02-22T15:41:20.612Z,100419.34
2023-02-22T15:44:25.944Z,100420.31
2023-02-22T15:47:29.503Z,100415.44
2023-02-22T15:50:35.047Z,100417.72
2023-02-22T15:53:47.941Z,100421.31
2023-02-22T15:56:55.631Z,100412.09
2023-02-22T15:59:58.165Z,100418.53
2023-02-22T16:03:00.844Z,100413.66
2023-02-22T16:06:08.692Z,100414.16
2023-02-22T16:09:12.867Z,100417.41
2023-02-22T16:12:22.011Z,100417.78
2023-02-22T16:15:24.362Z,100415.78
2023-02-22T16:18:31.327Z,100412.25
2023-02-22T16:21:49.728Z,100422.38
2023-02-22T16:24:52.797Z,100421.78
2023-02-22T16:28:06.089Z,100420.50
2023-02-22T16:31:09.238Z,100423.78
2023-02-22T16:34:14.589Z,100429.09
2023-02-22T16:37:24.438Z,100429.31
2023-02-22T16:40:32.311Z,100436.91
2023-02-22T16:43:35.119Z,100440.75
2023-02-22T16:46:37.988Z,100435.84
2023-02-22T16:49:40.760Z,100443.87
2023-02-22T16:52:48.669Z,100442.31
2023-02-22T16:55:57.574Z,100447.81
2023-02-22T16:59:06.379Z,100443.72
2023-02-22T17:02:14.309Z,100442.31
2023-02-22T17:05:16.872Z,100444.41
2023-02-22T17:08:19.597Z,100449.75
2023-02-22T17:11:22.398Z,100455.19
2023-02-22T17:14:27.785Z,100457.31
2023-02-22T17:17:32.710Z,100452.53
2023-02-22T17:20:35.792Z,100451.22
2023-02-22T17:23:38.157Z,100456.72
2023-02-22T17:26:41.391Z,100451.81
2023-02-22T17:29:45.211Z,100460.03
2023-02-22T17:32:51.430Z,100454.41
2023-02-22T17:35:55.109Z,100464.22
2023-02-22T17:38:59.637Z,100458.41
2023-02-22T17:42:02.344Z,100454.75
2023-02-22T17:45:05.561Z,100445.38
2023-02-22T17:48:08.977Z,100455.62
2023-02-22T17:51:12.966Z,100461.59
2023-02-22T17:54:18.161Z,100462.78
2023-02-22T17:57:25.216Z,100458.84
2023-02-22T18:00:35.624Z,100459.19
2023-02-22T18:03:40.130Z,100454.13
2023-02-22T18:06:42.796Z,100456.16
2023-02-22T18:09:46.371Z,100446.03
2023-02-22T18:12:49.101Z,100450.37
2023-02-22T18:15:53.084Z,100455.62
2023-02-22T18:18:56.318Z,100459.09
2023-02-22T18:22:00.292Z,100450.78
2023-02-22T18:25:02.886Z,100450.13
2023-02-22T18:28:06.858Z,100448.22
2023-02-22T18:31:14.744Z,100451.06
2023-02-22T18:34:17.608Z,100457.31
2023-02-22T18:37:20.521Z,100458.25
2023-02-22T18:40:25.865Z,100460.03
2023-02-22T18:43:29.500Z,100461.50
2023-02-22T18:46:32.605Z,100458.53
2023-02-22T18:49:35.814Z,100459.06
2023-02-22T18:52:45.721Z,100464.56
2023-02-22T18:55:48.871Z,100468.41
2023-02-22T18:58:55.336Z,100465.50
2023-02-22T19:01:58.452Z,100463.13
2023-02-22T19:05:02.616Z,100472.66
2023-02-22T19:08:11.180Z,100471.25
2023-02-22T19:11:21.993Z,100468.78
2023-02-22T19:14:24.445Z,100468.94
2023-02-22T19:17:28.626Z,100467.87
2023-02-22T19:20:33.271Z,100470.34
2023-02-22T19:23:38.090Z,100470.44
2023-02-22T19:26:50.230Z,100473.81
2023-02-22T19:29:53.190Z,100472.94
2023-02-22T19:32:55.926Z,100475.31
2023-02-22T19:36:02.216Z,100478.66
2023-02-22T19:39:04.993Z,100481.34
2023-02-22T19:42:09.676Z,100482.97
2023-02-22T19:45:12.349Z,100483.53
2023-02-22T19:48:15.369Z,100480.87
2023-02-22T19:51:19.092Z,100483.09
2023-02-22T19:54:23.957Z,100488.28
2023-02-22T19:57:29.516Z,100488.34
2023-02-22T20:00:35.679Z,100490.59
2023-02-22T20:03:38.879Z,100493.34
2023-02-22T20:06:42.554Z,100489.72
2023-02-22T20:09:45.557Z,100494.97
2023-02-22T20:12:49.771Z,100500.16
2023-02-22T20:15:53.460Z,100502.50
2023-02-22T20:18:56.088Z,100491.44
2023-02-22T20:22:00.354Z,100489.72
2023-02-22T20:25:03.070Z,100487.87
2023-02-22T20:28:07.756Z,100481.75
2023-02-22T20:31:17.137Z,100492.25
2023-02-22T20:34:20.257Z,100489.59
2023-02-22T20:37:23.137Z,100481.81
2023-02-22T20:40:27.279Z,100482.75
2023-02-22T20:43:29.954Z,100491.69
2023-02-22T20:46:33.298Z,100495.47
2023-02-22T20:49:36.141Z,100486.09
2023-02-22T20:52:39.870Z,100487.78
2023-02-22T20:55:52.059Z,100498.16
2023-02-22T20:58:59.554Z,100500.84
2023-02-22T21:02:02.403Z,100495.78
2023-02-22T21:05:06.533Z,100499.50
2023-02-22T21:08:09.254Z,100496.97
2023-02-22T21:11:13.564Z,100497.75
2023-02-22T21:14:18.899Z,100501.78
2023-02-22T21:17:28.697Z,100500.31
2023-02-22T21:20:31.435Z,100499.50
2023-02-22T21:23:34.312Z,100496.81
2023-02-22T21:26:36.914Z,100504.47
2023-02-22T21:29:39.796Z,100503.81
2023-02-22T21:32:42.499Z,100502.78
2023-02-22T21:35:47.201Z,100504.56
2023-02-22T21:38:53.390Z,100501.87
2023-02-22T21:42:00.296Z,100500.31
2023-02-22T21:45:02.960Z,100507.25
2023-02-22T21:48:06.282Z,100512.41
2023-02-22T21:51:13.866Z,100512.50
2023-02-22T21:54:16.898Z,100509.22
2023-02-22T21:57:19.384Z,100511.03
2023-02-22T22:00:29.273Z,100507.75
2023-02-22T22:03:32.339Z,100515.56
2023-02-22T22:06:35.682Z,100515.44
2023-02-22T22:09:41.340Z,100507.53
2023-02-22T22:12:46.220Z,100506.72
2023-02-22T22:15:49.412Z,100500.81
2023-02-22T22:18:51.742Z,100504.38
2023-02-22T22:21:55.182Z,100504.53
2023-02-22T22:24:57.760Z,100505.41
2023-02-22T22:28:01.107Z,100500.31
2023-02-22T22:31:04.649Z,100502.06
2023-02-22T22:34:07.297Z,100502.97
2023-02-22T22:37:09.680Z,100509.75
2023-02-22T22:40:15.748Z,100502.13
2023-02-22T22:43:18.464Z,100503.78
2023-02-22T22:46:21.565Z,100505.50
2023-02-22T22:49:25.560Z,100509.16
2023-02-22T22:52:31.300Z,100499.75
2023-02-22T22:55:33.932Z,100504.16
2023-02-22T22:58:37.271Z,100509.09
2023-02-22T23:01:41.035Z,100507.53
2023-02-22T23:04:43.637Z,100508.56
2023-02-22T23:07:45.955Z,100513.84
2023-02-22T23:10:48.575Z,100507.03
2023-02-22T23:13:50.897Z,100505.41
2023-02-22T23:16:59.826Z,100508.88
2023-02-22T23:20:02.239Z,100513.78
2023-02-22T23:23:06.117Z,100524.25
2023-02-22T23:26:18.242Z,100519.31
2023-02-22T23:29:22.818Z,100512.56
2023-02-22T23:32:26.824Z,100520.31
2023-02-22T23:35:29.465Z,100517.75
2023-02-22T23:38:32.001Z,100514.38
2023-02-22T23:41:36.439Z,100523.09
2023-02-22T23:44:40.418Z,100522.22
2023-02-22T23:47:43.916Z,100529.84
2023-02-22T23:50:47.395Z,100529.94
2023-02-22T23:53:50.106Z,100525.66
2023-02-22T23:56:58.414Z,100526.31
